createdAt,value
2018-06-11T00:02:20.440Z,64.00
2018-06-11T00:04:48.836Z,63.10
2018-06-11T00:07:17.185Z,63.70
2018-06-11T00:09:45.612Z,63.40
2018-06-11T00:12:13.948Z,63.00
2018-06-11T00:14:42.322Z,63.50
2018-06-11T00:17:10.708Z,62.50
2018-06-11T00:19:39.059Z,62.80
2018-06-11T00:22:07.593Z,63.80
2018-06-11T00:24:35.997Z,63.20
2018-06-11T00:27:04.399Z,63.00
2018-06-11T00:29:32.888Z,62.80
2018-06-11T00:32:01.290Z,63.20
2018-06-11T00:34:29.686Z,62.80
2018-06-11T00:36:58.024Z,63.50
2018-06-11T00:39:26.419Z,62.90
2018-06-11T00:41:54.928Z,63.20
2018-06-11T00:44:23.304Z,63.30
2018-06-11T00:46:51.636Z,63.10
2018-06-11T00:49:20.464Z,62.80
2018-06-11T00:51:48.833Z,62.90
2018-06-11T00:54:17.224Z,62.80
2018-06-11T00:56:45.562Z,62.40
2018-06-11T00:59:13.944Z,62.20
2018-06-11T01:01:42.336Z,62.70
2018-06-11T01:04:10.669Z,63.20
2018-06-11T01:06:39.476Z,62.10
2018-06-11T01:09:07.872Z,62.00
2018-06-11T01:11:36.220Z,62.00
2018-06-11T01:14:04.584Z,62.40
2018-06-11T01:16:32.949Z,62.90
2018-06-11T01:19:01.404Z,61.90
2018-06-11T01:21:29.772Z,61.70
2018-06-11T01:23:58.121Z,62.00
2018-06-11T01:26:26.622Z,61.80
2018-06-11T01:28:54.981Z,62.00
2018-06-11T01:31:23.384Z,63.20
2018-06-11T01:33:51.721Z,62.70
2018-06-11T01:36:20.089Z,62.60
2018-06-11T01:38:48.485Z,62.50
2018-06-11T01:41:16.884Z,62.70
2018-06-11T01:43:45.534Z,62.40
2018-06-11T01:46:13.844Z,62.20
2018-06-11T01:48:42.236Z,61.70
2018-06-11T01:51:10.614Z,62.10
2018-06-11T01:53:41.793Z,62.10
2018-06-11T01:56:10.163Z,62.80
2018-06-11T01:58:38.495Z,62.60
2018-06-11T02:01:06.941Z,62.60
2018-06-11T02:03:35.348Z,62.70
2018-06-11T02:06:03.743Z,62.80
2018-06-11T02:08:32.310Z,62.80
2018-06-11T02:11:00.762Z,62.10
2018-06-11T02:13:29.214Z,62.80
2018-06-11T02:15:57.666Z,63.00
2018-06-11T02:18:26.230Z,63.30
2018-06-11T02:20:54.648Z,62.70
2018-06-11T02:23:23.029Z,62.80
2018-06-11T02:25:51.581Z,62.60
2018-06-11T02:28:19.962Z,63.00
2018-06-11T02:30:48.320Z,62.90
2018-06-11T02:33:16.656Z,62.60
2018-06-11T02:35:44.984Z,62.70
2018-06-11T02:38:13.355Z,62.70
2018-06-11T02:40:41.726Z,63.00
2018-06-11T02:43:10.065Z,63.10
2018-06-11T02:45:38.429Z,62.90
2018-06-11T02:48:06.813Z,63.80
2018-06-11T02:50:35.236Z,63.80
2018-06-11T02:53:03.545Z,63.40
2018-06-11T02:55:31.928Z,62.40
2018-06-11T03:00:28.491Z,63.70
2018-06-11T03:02:56.912Z,63.60
2018-06-11T03:05:25.444Z,63.50
2018-06-11T03:07:53.893Z,63.50
2018-06-11T03:10:22.301Z,63.00
2018-06-11T03:12:50.644Z,63.40
2018-06-11T03:15:19.576Z,63.80
2018-06-11T03:17:47.953Z,63.20
2018-06-11T03:20:16.297Z,63.30
2018-06-11T03:22:44.702Z,63.90
2018-06-11T03:25:13.291Z,63.20
2018-06-11T03:27:41.705Z,63.30
2018-06-11T03:30:10.033Z,62.80
2018-06-11T03:32:38.501Z,62.90
2018-06-11T03:35:06.860Z,62.80
2018-06-11T03:37:35.312Z,63.30
2018-06-11T03:40:03.737Z,63.00
2018-06-11T03:42:32.161Z,63.20
2018-06-11T03:45:00.574Z,63.20
2018-06-11T03:47:29.014Z,63.40
2018-06-11T03:49:57.538Z,64.10
2018-06-11T03:52:26.072Z,62.80
2018-06-11T03:54:54.424Z,63.20
2018-06-11T03:57:22.833Z,63.70
2018-06-11T03:59:51.221Z,63.40
2018-06-11T04:02:20.184Z,63.60
2018-06-11T04:04:48.547Z,63.20
2018-06-11T04:07:16.956Z,63.60
2018-06-11T04:09:45.337Z,63.40
2018-06-11T04:12:13.693Z,64.00
2018-06-11T04:14:42.072Z,63.50
2018-06-11T04:17:10.364Z,63.30
2018-06-11T04:19:38.704Z,63.50
2018-06-11T04:22:07.076Z,63.50
2018-06-11T04:24:35.648Z,63.90
2018-06-11T04:27:04.048Z,63.70
2018-06-11T04:29:32.396Z,63.90
2018-06-11T04:32:00.900Z,63.10
2018-06-11T04:34:29.255Z,63.30
2018-06-11T04:36:57.620Z,63.80
2018-06-11T04:39:26.023Z,63.50
2018-06-11T04:41:54.385Z,63.30
2018-06-11T04:44:23.226Z,63.10
2018-06-11T04:46:51.672Z,63.50
2018-06-11T04:49:20.216Z,63.40
2018-06-11T04:51:48.579Z,63.20
2018-06-11T04:54:17.193Z,63.30
2018-06-11T04:56:45.639Z,63.30
2018-06-11T04:59:14.118Z,63.30
2018-06-11T05:01:42.675Z,63.30
2018-06-11T05:04:11.129Z,63.40
2018-06-11T05:06:39.555Z,62.80
2018-06-11T05:09:07.984Z,62.90
2018-06-11T05:11:36.418Z,63.30
2018-06-11T05:14:04.845Z,63.20
2018-06-11T05:16:33.290Z,63.30
2018-06-11T05:19:02.151Z,63.70
2018-06-11T05:21:30.613Z,63.50
2018-06-11T05:23:58.940Z,63.30
2018-06-11T05:26:28.844Z,63.30
2018-06-11T05:28:57.378Z,63.30
2018-06-11T05:31:25.776Z,63.80
2018-06-11T05:33:54.261Z,63.40
2018-06-11T05:36:22.697Z,63.50
2018-06-11T05:38:51.140Z,63.20
2018-06-11T05:41:19.666Z,63.10
2018-06-11T05:43:48.806Z,63.00
2018-06-11T05:46:17.360Z,63.00
2018-06-11T05:48:45.822Z,62.90
2018-06-11T05:51:14.320Z,62.80
2018-06-11T05:53:42.758Z,62.50
2018-06-11T05:56:11.111Z,63.10
2018-06-11T05:58:39.674Z,63.00
2018-06-11T06:01:08.118Z,62.40
2018-06-11T06:03:43.258Z,62.30
2018-06-11T06:06:11.728Z,62.60
2018-06-11T06:08:40.218Z,62.80
2018-06-11T06:11:08.709Z,62.90
2018-06-11T06:13:37.189Z,62.70
2018-06-11T06:16:05.634Z,61.90
2018-06-11T06:18:34.125Z,62.50
2018-06-11T06:21:02.527Z,62.40
2018-06-11T06:23:30.948Z,62.40
2018-06-11T06:25:59.454Z,62.30
2018-06-11T06:28:27.981Z,62.20
2018-06-11T06:30:56.791Z,62.10
2018-06-11T06:35:53.277Z,62.20
2018-06-11T06:38:21.757Z,62.40
2018-06-11T06:40:50.126Z,62.10
2018-06-11T06:43:18.499Z,61.80
2018-06-11T06:45:46.973Z,62.20
2018-06-11T06:48:15.402Z,62.30
2018-06-11T06:50:43.856Z,62.20
2018-06-11T06:53:12.360Z,61.40
2018-06-11T06:55:40.768Z,61.80
2018-06-11T06:58:09.286Z,62.00
2018-06-11T07:00:37.704Z,62.30
2018-06-11T07:03:06.101Z,62.60
2018-06-11T07:05:34.499Z,62.10
2018-06-11T07:08:02.956Z,61.70
2018-06-11T07:10:31.447Z,61.90
2018-06-11T07:13:00.294Z,62.10
2018-06-11T07:15:28.693Z,62.40
2018-06-11T07:17:57.053Z,62.60
2018-06-11T07:20:25.536Z,62.30
2018-06-11T07:22:54.152Z,62.40
2018-06-11T07:25:22.565Z,62.20
2018-06-11T07:27:51.002Z,62.30
2018-06-11T07:30:19.510Z,62.10
2018-06-11T07:32:47.964Z,62.40
2018-06-11T07:35:16.842Z,61.80
2018-06-11T07:37:45.260Z,61.50
2018-06-11T07:40:13.684Z,61.80
2018-06-11T07:42:42.182Z,61.20
2018-06-11T07:45:10.625Z,61.50
2018-06-11T07:47:39.121Z,61.70
2018-06-11T07:50:07.582Z,61.00
2018-06-11T07:52:36.029Z,61.50
2018-06-11T07:55:04.526Z,61.20
2018-06-11T07:57:33.076Z,60.80
2018-06-11T08:00:01.753Z,61.70
2018-06-11T08:02:30.066Z,61.10
2018-06-11T08:04:58.524Z,61.40
2018-06-11T08:07:27.140Z,60.40
2018-06-11T08:09:55.548Z,61.20
2018-06-11T08:12:24.014Z,61.00
2018-06-11T08:14:52.522Z,61.20
2018-06-11T08:17:20.960Z,61.30
2018-06-11T08:19:49.381Z,60.70
2018-06-11T08:22:17.753Z,60.10
2018-06-11T08:24:46.223Z,59.90
2018-06-11T08:27:14.718Z,60.50
2018-06-11T08:29:43.232Z,60.80
2018-06-11T08:32:11.656Z,60.30
2018-06-11T08:34:40.030Z,60.10
2018-06-11T08:37:08.459Z,59.70
2018-06-11T08:39:36.961Z,58.60
2018-06-11T08:42:05.521Z,58.90
2018-06-11T08:44:33.894Z,59.70
2018-06-11T08:47:02.395Z,59.20
2018-06-11T08:49:30.943Z,59.70
2018-06-11T08:51:59.372Z,59.40
2018-06-11T08:54:27.833Z,59.40
2018-06-11T08:56:56.285Z,59.30
2018-06-11T08:59:24.769Z,59.60
2018-06-11T09:01:53.332Z,59.40
2018-06-11T09:04:21.931Z,59.00
2018-06-11T09:06:50.394Z,58.60
2018-06-11T09:09:18.868Z,59.20
2018-06-11T09:11:47.262Z,59.70
2018-06-11T09:14:15.738Z,59.10
2018-06-11T09:16:44.238Z,59.60
2018-06-11T09:19:12.624Z,58.60
2018-06-11T09:21:41.542Z,59.10
2018-06-11T09:24:10.177Z,59.20
2018-06-11T09:26:38.673Z,57.70
2018-06-11T09:29:07.168Z,58.50
2018-06-11T09:31:35.671Z,59.10
2018-06-11T09:34:04.202Z,59.10
2018-06-11T09:36:32.832Z,58.70
2018-06-11T09:39:01.476Z,59.10
2018-06-11T09:41:29.990Z,59.20
2018-06-11T09:43:58.631Z,58.20
2018-06-11T09:46:27.100Z,58.60
2018-06-11T09:48:55.632Z,57.90
2018-06-11T09:51:24.141Z,58.40
2018-06-11T09:53:52.618Z,58.90
2018-06-11T09:56:21.214Z,57.70
2018-06-11T09:58:49.713Z,57.30
2018-06-11T10:01:18.197Z,56.80
2018-06-11T10:03:46.701Z,58.30
2018-06-11T10:06:15.118Z,57.60
2018-06-11T10:08:43.598Z,58.00
2018-06-11T10:11:12.103Z,58.10
2018-06-11T10:13:40.637Z,57.90
2018-06-11T10:16:09.191Z,58.00
2018-06-11T10:18:37.877Z,57.80
2018-06-11T10:21:06.721Z,57.50
2018-06-11T10:23:35.282Z,57.40
2018-06-11T10:26:03.884Z,57.20
2018-06-11T10:28:32.461Z,56.40
2018-06-11T10:31:00.992Z,56.50
2018-06-11T10:33:29.463Z,56.90
2018-06-11T10:35:57.937Z,56.70
2018-06-11T10:38:26.470Z,57.00
2018-06-11T10:40:54.997Z,56.40
2018-06-11T10:43:23.512Z,56.50
2018-06-11T10:45:52.096Z,56.20
2018-06-11T10:48:20.647Z,57.20
2018-06-11T10:50:49.044Z,56.10
2018-06-11T10:53:17.572Z,55.50
2018-06-11T10:55:46.138Z,54.90
2018-06-11T10:58:14.597Z,54.40
2018-06-11T11:00:43.018Z,54.80
2018-06-11T11:03:11.547Z,56.50
2018-06-11T11:05:40.105Z,56.00
2018-06-11T11:08:08.553Z,55.30
2018-06-11T11:10:37.021Z,53.90
2018-06-11T11:13:05.599Z,54.80
2018-06-11T11:15:34.095Z,55.20
2018-06-11T11:18:02.579Z,54.80
2018-06-11T11:20:31.105Z,54.60
2018-06-11T11:22:59.630Z,54.40
2018-06-11T11:25:28.033Z,54.70
2018-06-11T11:27:56.663Z,54.10
2018-06-11T11:30:25.266Z,53.50
2018-06-11T11:32:53.785Z,53.60
2018-06-11T11:35:22.332Z,53.80
2018-06-11T11:37:50.813Z,53.40
2018-06-11T11:40:19.410Z,52.10
2018-06-11T11:42:47.921Z,52.20
2018-06-11T11:45:16.821Z,52.60
2018-06-11T11:47:45.254Z,51.30
2018-06-11T11:50:13.659Z,51.70
2018-06-11T11:52:42.003Z,51.00
2018-06-11T11:55:10.565Z,51.10
2018-06-11T11:57:38.966Z,49.80
2018-06-11T12:00:07.297Z,49.80
2018-06-11T12:02:35.688Z,50.40
2018-06-11T12:05:04.542Z,50.60
2018-06-11T12:07:32.900Z,50.40
2018-06-11T12:10:01.290Z,49.50
2018-06-11T12:12:29.651Z,48.80
2018-06-11T12:14:58.132Z,49.30
2018-06-11T12:17:26.567Z,49.90
2018-06-11T12:19:55.015Z,49.20
2018-06-11T12:22:23.328Z,49.70
2018-06-11T12:24:52.351Z,49.70
2018-06-11T12:27:20.674Z,50.60
2018-06-11T12:29:49.652Z,50.70
2018-06-11T12:32:17.992Z,51.10
2018-06-11T12:34:46.360Z,50.90
2018-06-11T12:37:15.170Z,49.60
2018-06-11T12:39:43.751Z,49.10
2018-06-11T12:42:12.057Z,49.20
2018-06-11T12:44:40.407Z,47.80
2018-06-11T12:47:08.844Z,47.90
2018-06-11T12:49:38.145Z,49.10
2018-06-11T12:52:06.634Z,48.90
2018-06-11T12:54:35.115Z,47.80
2018-06-11T12:57:03.629Z,48.00
2018-06-11T12:59:32.097Z,49.00
2018-06-11T13:02:00.574Z,48.90
2018-06-11T13:04:29.671Z,47.30
2018-06-11T13:11:55.282Z,48.40
2018-06-11T13:14:23.717Z,47.40
2018-06-11T13:16:52.178Z,47.90
2018-06-11T13:19:20.542Z,48.00
2018-06-11T13:21:48.960Z,48.60
2018-06-11T13:24:17.378Z,47.60
2018-06-11T13:26:45.724Z,47.60
2018-06-11T13:29:14.116Z,48.00
2018-06-11T13:31:43.225Z,48.20
2018-06-11T13:34:11.702Z,48.40
2018-06-11T13:36:40.238Z,48.80
2018-06-11T13:39:09.094Z,48.20
2018-06-11T13:41:37.472Z,49.70
2018-06-11T13:44:05.892Z,48.20
2018-06-11T13:46:34.273Z,49.80
2018-06-11T13:49:05.174Z,49.90
2018-06-11T13:51:33.726Z,48.80
2018-06-11T13:54:02.270Z,46.70
2018-06-11T13:56:30.713Z,47.20
2018-06-11T13:58:59.070Z,46.80
2018-06-11T14:01:27.736Z,46.40
2018-06-11T14:03:56.210Z,47.00
2018-06-11T14:06:24.691Z,48.10
2018-06-11T14:11:21.293Z,47.20
2018-06-11T14:13:49.708Z,47.50
2018-06-11T14:16:18.200Z,46.00
2018-06-11T14:18:46.667Z,45.90
2018-06-11T14:21:15.067Z,47.10
2018-06-11T14:23:43.532Z,46.90
2018-06-11T14:26:12.410Z,47.20
2018-06-11T14:28:40.907Z,46.90
2018-06-11T14:31:09.476Z,47.60
2018-06-11T14:33:38.065Z,46.30
2018-06-11T14:36:06.712Z,47.00
2018-06-11T14:38:35.160Z,46.60
2018-06-11T14:41:03.778Z,46.80
2018-06-11T14:46:00.347Z,47.70
2018-06-11T14:48:28.857Z,47.80
2018-06-11T14:50:57.352Z,47.40
2018-06-11T14:53:25.721Z,46.60
2018-06-11T14:55:54.258Z,46.50
2018-06-11T14:58:22.715Z,47.30
2018-06-11T15:00:51.286Z,48.00
2018-06-11T15:03:20.338Z,48.30
2018-06-11T15:05:48.819Z,47.10
2018-06-11T15:08:17.231Z,47.10
2018-06-11T15:10:45.690Z,48.40
2018-06-11T15:13:14.194Z,46.80
2018-06-11T15:15:42.627Z,46.20
2018-06-11T15:18:11.161Z,46.40
2018-06-11T15:20:39.644Z,46.20
2018-06-11T15:23:08.045Z,46.50
2018-06-11T15:25:36.418Z,45.40
2018-06-11T15:28:04.923Z,47.20
2018-06-11T15:30:33.404Z,47.20
2018-06-11T15:33:01.866Z,47.00
2018-06-11T15:35:30.848Z,45.60
2018-06-11T15:38:13.302Z,46.30
2018-06-11T15:40:42.358Z,46.80
2018-06-11T15:43:12.416Z,45.50
2018-06-11T15:45:41.764Z,46.20
2018-06-11T15:48:12.096Z,46.30
2018-06-11T15:50:41.620Z,45.90
2018-06-11T15:53:10.131Z,45.10
2018-06-11T15:55:44.004Z,45.20
2018-06-11T15:58:16.933Z,46.20
2018-06-11T16:00:47.677Z,46.00
2018-06-11T16:03:16.306Z,45.90
2018-06-11T16:05:44.777Z,46.00
2018-06-11T16:08:13.217Z,46.20
2018-06-11T16:10:41.668Z,48.20
2018-06-11T16:13:10.085Z,46.70
2018-06-11T16:15:39.210Z,46.40
2018-06-11T16:18:07.612Z,47.00
2018-06-11T16:20:36.062Z,45.10
2018-06-11T16:23:09.452Z,46.70
2018-06-11T16:25:37.879Z,46.10
2018-06-11T16:30:34.968Z,46.60
2018-06-11T16:33:07.627Z,48.40
2018-06-11T16:35:36.210Z,48.10
2018-06-11T16:40:39.465Z,47.10
2018-06-11T16:43:07.877Z,47.10
2018-06-11T16:45:36.264Z,46.70
2018-06-11T16:48:05.399Z,46.80
2018-06-11T16:50:33.889Z,45.90
2018-06-11T16:53:02.576Z,46.80
2018-06-11T16:55:31.048Z,47.80
2018-06-11T16:58:00.320Z,47.40
2018-06-11T17:00:28.685Z,47.50
2018-06-11T17:02:57.548Z,47.90
2018-06-11T17:05:26.426Z,47.00
2018-06-11T17:07:55.826Z,47.20
2018-06-11T17:10:24.367Z,47.50
2018-06-11T17:12:53.001Z,48.20
2018-06-11T17:15:21.699Z,47.60
2018-06-11T17:17:50.491Z,47.60
2018-06-11T17:20:18.915Z,47.80
2018-06-11T17:22:47.362Z,48.90
2018-06-11T17:25:15.827Z,49.20
2018-06-11T17:27:44.294Z,48.20
2018-06-11T17:30:15.039Z,49.00
2018-06-11T17:32:43.557Z,48.90
2018-06-11T17:35:12.180Z,49.20
2018-06-11T17:37:40.653Z,49.40
2018-06-11T17:40:09.089Z,48.90
2018-06-11T17:42:37.452Z,49.40
2018-06-11T17:45:06.019Z,48.80
2018-06-11T17:47:34.921Z,49.50
2018-06-11T17:50:03.331Z,49.90
2018-06-11T17:52:31.769Z,49.90
2018-06-11T17:55:00.157Z,50.10
2018-06-11T17:57:28.824Z,50.10
2018-06-11T17:59:58.057Z,49.30
2018-06-11T18:05:25.943Z,50.40
2018-06-11T18:08:05.028Z,51.00
2018-06-11T18:10:34.223Z,50.30
2018-06-11T18:13:03.031Z,50.10
2018-06-11T18:15:31.325Z,50.70
2018-06-11T18:17:59.700Z,50.40
2018-06-11T18:20:28.041Z,49.00
2018-06-11T18:22:56.368Z,50.90
2018-06-11T18:25:25.581Z,51.30
2018-06-11T18:27:53.933Z,49.90
2018-06-11T18:30:22.287Z,50.50
2018-06-11T18:32:50.593Z,50.20
2018-06-11T18:35:19.025Z,49.70
2018-06-11T18:37:47.332Z,50.70
2018-06-11T18:40:15.737Z,51.70
2018-06-11T18:42:44.154Z,52.50
2018-06-11T18:45:14.435Z,51.30
2018-06-11T18:47:43.392Z,50.40
2018-06-11T18:50:11.858Z,51.60
2018-06-11T18:52:40.204Z,52.00
2018-06-11T18:55:09.162Z,50.00
2018-06-11T18:57:38.063Z,50.10
2018-06-11T19:00:06.833Z,51.70
2018-06-11T19:02:35.236Z,52.20
2018-06-11T19:05:03.894Z,51.30
2018-06-11T19:07:32.261Z,50.40
2018-06-11T19:10:00.841Z,51.20
2018-06-11T19:12:29.372Z,51.40
2018-06-11T19:17:27.244Z,51.30
2018-06-11T19:19:55.695Z,51.40
2018-06-11T19:22:24.218Z,50.50
2018-06-11T19:24:52.909Z,51.80
2018-06-11T19:27:21.306Z,51.60
2018-06-11T19:29:49.802Z,50.40
2018-06-11T19:32:18.289Z,52.40
2018-06-11T19:34:46.727Z,52.10
2018-06-11T19:37:15.280Z,51.90
2018-06-11T19:39:43.764Z,53.00
2018-06-11T19:42:12.173Z,52.50
2018-06-11T19:44:40.691Z,52.20
2018-06-11T19:47:09.086Z,52.30
2018-06-11T19:49:37.568Z,53.50
2018-06-11T19:52:06.636Z,52.80
2018-06-11T19:54:35.224Z,53.10
2018-06-11T19:57:03.585Z,53.50
2018-06-11T19:59:31.986Z,53.50
2018-06-11T20:04:28.450Z,54.10
2018-06-11T20:06:56.847Z,52.20
2018-06-11T20:09:25.405Z,52.70
2018-06-11T20:11:53.804Z,51.50
2018-06-11T20:14:22.379Z,53.30
2018-06-11T20:16:50.868Z,53.10
2018-06-11T20:19:21.252Z,51.50
2018-06-11T20:21:49.691Z,53.10
2018-06-11T20:24:18.172Z,53.60
2018-06-11T20:26:46.679Z,54.10
2018-06-11T20:29:15.084Z,53.70
2018-06-11T20:31:43.537Z,52.60
2018-06-11T20:34:11.994Z,53.30
2018-06-11T20:36:40.437Z,52.50
2018-06-11T20:39:08.929Z,54.20
2018-06-11T20:41:37.469Z,53.30
2018-06-11T20:44:11.234Z,54.30
2018-06-11T20:46:44.381Z,53.10
2018-06-11T20:49:12.893Z,53.70
2018-06-11T20:51:41.243Z,53.90
2018-06-11T20:54:09.625Z,52.50
2018-06-11T20:59:06.180Z,53.50
2018-06-11T21:01:34.577Z,51.70
2018-06-11T21:04:04.065Z,53.10
2018-06-11T21:06:32.440Z,53.70
2018-06-11T21:09:00.767Z,53.80
2018-06-11T21:11:29.187Z,54.40
2018-06-11T21:13:57.598Z,52.90
2018-06-11T21:16:26.029Z,51.50
2018-06-11T21:18:54.491Z,53.70
2018-06-11T21:21:22.843Z,53.60
2018-06-11T21:23:52.590Z,54.20
2018-06-11T21:26:22.805Z,54.70
2018-06-11T21:28:51.130Z,53.00
2018-06-11T21:31:19.444Z,54.40
2018-06-11T21:33:47.828Z,53.60
2018-06-11T21:36:16.337Z,53.40
2018-06-11T21:38:44.797Z,53.60
2018-06-11T21:41:16.404Z,52.90
2018-06-11T21:43:44.817Z,52.50
2018-06-11T21:46:13.279Z,53.10
2018-06-11T21:48:42.070Z,54.20
2018-06-11T21:51:10.564Z,54.90
2018-06-11T21:53:42.682Z,53.80
2018-06-11T21:56:11.057Z,53.90
2018-06-11T21:58:39.495Z,53.50
2018-06-11T22:01:07.907Z,53.30
2018-06-11T22:03:36.396Z,54.90
2018-06-11T22:06:04.751Z,53.60
2018-06-11T22:08:33.133Z,53.40
2018-06-11T22:11:01.526Z,54.40
2018-06-11T22:13:30.013Z,54.40
2018-06-11T22:15:58.386Z,53.10
2018-06-11T22:18:26.774Z,54.50
2018-06-11T22:20:55.188Z,53.80
2018-06-11T22:23:23.644Z,55.00
2018-06-11T22:25:52.081Z,55.30
2018-06-11T22:28:20.523Z,54.10
2018-06-11T22:30:48.957Z,54.30
2018-06-11T22:33:17.450Z,55.40
2018-06-11T22:35:46.276Z,54.50
2018-06-11T22:38:14.672Z,54.50
2018-06-11T22:40:43.036Z,55.10
2018-06-11T22:43:12.734Z,55.30
2018-06-11T22:45:41.216Z,55.70
2018-06-11T22:48:19.737Z,55.90
2018-06-11T22:53:16.240Z,55.90
2018-06-11T22:55:44.742Z,56.20
2018-06-11T22:58:13.116Z,55.50
2018-06-11T23:00:41.469Z,54.90
2018-06-11T23:03:09.885Z,55.40
2018-06-11T23:05:38.254Z,55.10
2018-06-11T23:08:06.620Z,55.50
2018-06-11T23:10:35.045Z,55.80
2018-06-11T23:13:03.484Z,56.10
2018-06-11T23:15:31.988Z,55.80
2018-06-11T23:18:00.401Z,54.00
2018-06-11T23:20:28.849Z,55.40
2018-06-11T23:22:57.258Z,55.50
2018-06-11T23:25:25.665Z,55.80
2018-06-11T23:27:54.105Z,54.90
2018-06-11T23:30:22.506Z,54.40
2018-06-11T23:32:50.893Z,54.90
2018-06-11T23:35:19.328Z,55.70
2018-06-11T23:37:47.829Z,55.20
2018-06-11T23:40:16.182Z,55.90
2018-06-11T23:42:44.580Z,55.10
2018-06-11T23:45:12.943Z,55.10
2018-06-11T23:47:41.328Z,55.50
2018-06-11T23:50:09.809Z,56.70
2018-06-11T23:52:38.284Z,55.50
2018-06-11T23:55:06.684Z,55.10
2018-06-11T23:57:35.102Z,55.30
